sensor_id;sensor_type;location;lat;lon;timestamp;P1;durP1;ratioP1;P2;durP2;ratioP2
22650;SDS011;11492;42.646;23.400;2023-05-07T00:00:09;8.30;;;4.32;;
22650;SDS011;11492;42.646;23.400;2023-05-07T00:02:35;8.73;;;4.63;;
22650;SDS011;11492;42.646;23.400;2023-05-07T00:05:02;8.15;;;4.60;;
22650;SDS011;11492;42.646;23.400;2023-05-07T00:07:28;6.18;;;4.47;;
22650;SDS011;11492;42.646;23.400;2023-05-07T00:09:53;7.18;;;4.32;;
22650;SDS011;11492;42.646;23.400;2023-05-07T00:12:19;10.27;;;4.53;;
22650;SDS011;11492;42.646;23.400;2023-05-07T00:14:45;11.02;;;5.40;;
22650;SDS011;11492;42.646;23.400;2023-05-07T00:17:10;8.30;;;5.03;;
22650;SDS011;11492;42.646;23.400;2023-05-07T00:19:36;8.35;;;4.75;;
22650;SDS011;11492;42.646;23.400;2023-05-07T00:22:01;6.50;;;4.20;;
22650;SDS011;11492;42.646;23.400;2023-05-07T00:24:28;13.77;;;5.10;;
22650;SDS011;11492;42.646;23.400;2023-05-07T00:26:53;8.13;;;4.78;;
22650;SDS011;11492;42.646;23.400;2023-05-07T00:29:19;10.07;;;4.60;;
22650;SDS011;11492;42.646;23.400;2023-05-07T00:31:45;10.43;;;4.57;;
22650;SDS011;11492;42.646;23.400;2023-05-07T00:34:10;5.97;;;4.15;;
22650;SDS011;11492;42.646;23.400;2023-05-07T00:36:35;8.75;;;4.68;;
22650;SDS011;11492;42.646;23.400;2023-05-07T00:39:01;10.10;;;4.53;;
22650;SDS011;11492;42.646;23.400;2023-05-07T00:41:28;7.22;;;4.57;;
22650;SDS011;11492;42.646;23.400;2023-05-07T00:43:55;8.70;;;4.95;;
22650;SDS011;11492;42.646;23.400;2023-05-07T00:46:21;7.43;;;4.72;;
22650;SDS011;11492;42.646;23.400;2023-05-07T00:48:47;13.20;;;4.90;;
22650;SDS011;11492;42.646;23.400;2023-05-07T00:51:14;7.20;;;5.15;;
22650;SDS011;11492;42.646;23.400;2023-05-07T00:53:40;11.30;;;5.22;;
22650;SDS011;11492;42.646;23.400;2023-05-07T00:56:06;7.75;;;5.05;;
22650;SDS011;11492;42.646;23.400;2023-05-07T00:58:32;12.43;;;5.15;;
22650;SDS011;11492;42.646;23.400;2023-05-07T01:00:59;8.20;;;5.10;;
22650;SDS011;11492;42.646;23.400;2023-05-07T01:03:25;14.13;;;5.20;;
22650;SDS011;11492;42.646;23.400;2023-05-07T01:05:50;10.55;;;6.32;;
22650;SDS011;11492;42.646;23.400;2023-05-07T01:08:18;10.18;;;6.15;;
22650;SDS011;11492;42.646;23.400;2023-05-07T01:10:45;12.73;;;6.95;;
22650;SDS011;11492;42.646;23.400;2023-05-07T01:13:11;11.15;;;7.68;;
22650;SDS011;11492;42.646;23.400;2023-05-07T01:15:39;15.68;;;8.45;;
22650;SDS011;11492;42.646;23.400;2023-05-07T01:18:06;14.77;;;8.25;;
22650;SDS011;11492;42.646;23.400;2023-05-07T01:20:32;13.18;;;8.05;;
22650;SDS011;11492;42.646;23.400;2023-05-07T01:22:58;12.52;;;7.78;;
22650;SDS011;11492;42.646;23.400;2023-05-07T01:25:25;13.50;;;7.38;;
22650;SDS011;11492;42.646;23.400;2023-05-07T01:27:51;13.70;;;6.85;;
22650;SDS011;11492;42.646;23.400;2023-05-07T01:30:17;14.77;;;6.40;;
22650;SDS011;11492;42.646;23.400;2023-05-07T01:32:52;9.25;;;6.22;;
22650;SDS011;11492;42.646;23.400;2023-05-07T01:35:28;11.07;;;6.22;;
22650;SDS011;11492;42.646;23.400;2023-05-07T01:37:57;13.20;;;6.90;;
22650;SDS011;11492;42.646;23.400;2023-05-07T01:40:23;9.65;;;6.18;;
22650;SDS011;11492;42.646;23.400;2023-05-07T01:42:49;12.68;;;6.05;;
22650;SDS011;11492;42.646;23.400;2023-05-07T01:45:15;13.50;;;6.53;;
22650;SDS011;11492;42.646;23.400;2023-05-07T01:47:41;9.23;;;6.13;;
22650;SDS011;11492;42.646;23.400;2023-05-07T01:50:07;11.85;;;6.85;;
22650;SDS011;11492;42.646;23.400;2023-05-07T01:52:35;10.75;;;6.93;;
22650;SDS011;11492;42.646;23.400;2023-05-07T01:55:02;18.75;;;7.43;;
22650;SDS011;11492;42.646;23.400;2023-05-07T01:57:28;11.95;;;7.07;;
22650;SDS011;11492;42.646;23.400;2023-05-07T01:59:54;12.57;;;6.60;;
22650;SDS011;11492;42.646;23.400;2023-05-07T02:02:19;17.20;;;8.07;;
22650;SDS011;11492;42.646;23.400;2023-05-07T02:04:45;13.32;;;7.45;;
22650;SDS011;11492;42.646;23.400;2023-05-07T02:07:10;13.43;;;7.55;;
22650;SDS011;11492;42.646;23.400;2023-05-07T02:09:36;12.13;;;7.88;;
22650;SDS011;11492;42.646;23.400;2023-05-07T02:12:01;13.73;;;8.48;;
22650;SDS011;11492;42.646;23.400;2023-05-07T02:14:27;17.50;;;7.97;;
22650;SDS011;11492;42.646;23.400;2023-05-07T02:16:52;16.63;;;8.38;;
22650;SDS011;11492;42.646;23.400;2023-05-07T02:19:18;15.25;;;8.68;;
22650;SDS011;11492;42.646;23.400;2023-05-07T02:21:46;17.20;;;8.85;;
22650;SDS011;11492;42.646;23.400;2023-05-07T02:24:12;14.32;;;9.07;;
22650;SDS011;11492;42.646;23.400;2023-05-07T02:26:39;14.15;;;8.93;;
22650;SDS011;11492;42.646;23.400;2023-05-07T02:29:05;11.38;;;8.20;;
22650;SDS011;11492;42.646;23.400;2023-05-07T02:31:30;23.80;;;9.07;;
22650;SDS011;11492;42.646;23.400;2023-05-07T02:33:56;13.85;;;8.63;;
22650;SDS011;11492;42.646;23.400;2023-05-07T02:36:21;14.23;;;8.60;;
22650;SDS011;11492;42.646;23.400;2023-05-07T02:38:47;12.52;;;8.80;;
22650;SDS011;11492;42.646;23.400;2023-05-07T02:41:12;11.82;;;8.50;;
22650;SDS011;11492;42.646;23.400;2023-05-07T02:43:37;15.13;;;8.73;;
22650;SDS011;11492;42.646;23.400;2023-05-07T02:46:03;12.90;;;8.50;;
22650;SDS011;11492;42.646;23.400;2023-05-07T02:48:30;18.60;;;8.52;;
22650;SDS011;11492;42.646;23.400;2023-05-07T02:50:56;14.20;;;8.73;;
22650;SDS011;11492;42.646;23.400;2023-05-07T02:53:21;17.17;;;9.25;;
22650;SDS011;11492;42.646;23.400;2023-05-07T02:55:47;13.05;;;8.80;;
22650;SDS011;11492;42.646;23.400;2023-05-07T02:58:12;16.42;;;8.85;;
22650;SDS011;11492;42.646;23.400;2023-05-07T03:00:37;17.88;;;9.68;;
22650;SDS011;11492;42.646;23.400;2023-05-07T03:03:03;15.40;;;8.85;;
22650;SDS011;11492;42.646;23.400;2023-05-07T03:05:28;15.25;;;9.60;;
22650;SDS011;11492;42.646;23.400;2023-05-07T03:07:54;15.88;;;8.95;;
22650;SDS011;11492;42.646;23.400;2023-05-07T03:10:19;15.45;;;9.15;;
22650;SDS011;11492;42.646;23.400;2023-05-07T03:12:45;16.20;;;10.15;;
22650;SDS011;11492;42.646;23.400;2023-05-07T03:15:10;20.35;;;10.45;;
22650;SDS011;11492;42.646;23.400;2023-05-07T03:17:39;15.30;;;10.43;;
22650;SDS011;11492;42.646;23.400;2023-05-07T03:20:05;16.02;;;9.95;;
22650;SDS011;11492;42.646;23.400;2023-05-07T03:22:30;18.15;;;10.55;;
22650;SDS011;11492;42.646;23.400;2023-05-07T03:24:56;20.70;;;11.73;;
22650;SDS011;11492;42.646;23.400;2023-05-07T03:27:22;23.35;;;13.38;;
22650;SDS011;11492;42.646;23.400;2023-05-07T03:29:47;15.32;;;10.70;;
22650;SDS011;11492;42.646;23.400;2023-05-07T03:32:13;18.48;;;11.05;;
22650;SDS011;11492;42.646;23.400;2023-05-07T03:34:39;20.88;;;12.48;;
22650;SDS011;11492;42.646;23.400;2023-05-07T03:37:05;24.65;;;15.63;;
22650;SDS011;11492;42.646;23.400;2023-05-07T03:39:30;18.73;;;13.10;;
22650;SDS011;11492;42.646;23.400;2023-05-07T03:41:57;23.50;;;14.10;;
22650;SDS011;11492;42.646;23.400;2023-05-07T03:44:23;26.48;;;16.92;;
22650;SDS011;11492;42.646;23.400;2023-05-07T03:46:48;21.98;;;15.02;;
22650;SDS011;11492;42.646;23.400;2023-05-07T03:49:14;24.50;;;16.38;;
22650;SDS011;11492;42.646;23.400;2023-05-07T03:51:39;24.60;;;16.88;;
22650;SDS011;11492;42.646;23.400;2023-05-07T03:54:05;23.73;;;15.82;;
22650;SDS011;11492;42.646;23.400;2023-05-07T03:56:30;26.67;;;15.98;;
22650;SDS011;11492;42.646;23.400;2023-05-07T03:58:56;25.15;;;16.42;;
22650;SDS011;11492;42.646;23.400;2023-05-07T04:01:21;24.65;;;16.42;;
22650;SDS011;11492;42.646;23.400;2023-05-07T04:03:47;23.75;;;16.35;;
22650;SDS011;11492;42.646;23.400;2023-05-07T04:06:12;22.52;;;15.02;;
22650;SDS011;11492;42.646;23.400;2023-05-07T04:08:38;23.90;;;16.02;;
22650;SDS011;11492;42.646;23.400;2023-05-07T04:11:03;23.00;;;15.63;;
22650;SDS011;11492;42.646;23.400;2023-05-07T04:13:29;26.48;;;16.52;;
22650;SDS011;11492;42.646;23.400;2023-05-07T04:15:55;23.20;;;16.10;;
22650;SDS011;11492;42.646;23.400;2023-05-07T04:18:21;25.85;;;16.13;;
22650;SDS011;11492;42.646;23.400;2023-05-07T04:20:47;27.52;;;16.27;;
22650;SDS011;11492;42.646;23.400;2023-05-07T04:23:14;28.92;;;17.80;;
22650;SDS011;11492;42.646;23.400;2023-05-07T04:25:39;24.77;;;17.00;;
22650;SDS011;11492;42.646;23.400;2023-05-07T04:28:05;26.73;;;17.25;;
22650;SDS011;11492;42.646;23.400;2023-05-07T04:30:31;29.70;;;17.10;;
22650;SDS011;11492;42.646;23.400;2023-05-07T04:32:56;25.70;;;16.48;;
22650;SDS011;11492;42.646;23.400;2023-05-07T04:35:22;23.40;;;15.75;;
22650;SDS011;11492;42.646;23.400;2023-05-07T04:37:47;24.98;;;16.73;;
22650;SDS011;11492;42.646;23.400;2023-05-07T04:40:12;26.27;;;16.95;;
22650;SDS011;11492;42.646;23.400;2023-05-07T04:42:38;22.90;;;15.93;;
22650;SDS011;11492;42.646;23.400;2023-05-07T04:45:04;26.73;;;16.35;;
22650;SDS011;11492;42.646;23.400;2023-05-07T04:47:30;26.75;;;15.90;;
22650;SDS011;11492;42.646;23.400;2023-05-07T04:49:55;23.27;;;15.85;;
22650;SDS011;11492;42.646;23.400;2023-05-07T04:52:22;23.17;;;15.50;;
22650;SDS011;11492;42.646;23.400;2023-05-07T04:54:47;22.80;;;15.73;;
22650;SDS011;11492;42.646;23.400;2023-05-07T04:57:13;22.55;;;15.13;;
22650;SDS011;11492;42.646;23.400;2023-05-07T04:59:38;22.35;;;15.75;;
22650;SDS011;11492;42.646;23.400;2023-05-07T05:02:03;23.08;;;14.77;;
22650;SDS011;11492;42.646;23.400;2023-05-07T05:04:29;23.00;;;14.85;;
22650;SDS011;11492;42.646;23.400;2023-05-07T05:06:55;24.98;;;14.85;;
22650;SDS011;11492;42.646;23.400;2023-05-07T05:09:20;23.60;;;14.77;;
22650;SDS011;11492;42.646;23.400;2023-05-07T05:11:46;21.02;;;14.23;;
22650;SDS011;11492;42.646;23.400;2023-05-07T05:14:11;19.40;;;14.30;;
22650;SDS011;11492;42.646;23.400;2023-05-07T05:16:37;25.50;;;13.93;;
22650;SDS011;11492;42.646;23.400;2023-05-07T05:19:02;20.58;;;13.88;;
22650;SDS011;11492;42.646;23.400;2023-05-07T05:21:28;20.40;;;13.98;;
22650;SDS011;11492;42.646;23.400;2023-05-07T05:23:53;20.95;;;14.02;;
22650;SDS011;11492;42.646;23.400;2023-05-07T05:26:19;25.58;;;14.35;;
22650;SDS011;11492;42.646;23.400;2023-05-07T05:28:46;21.45;;;14.30;;
22650;SDS011;11492;42.646;23.400;2023-05-07T05:31:11;24.65;;;13.95;;
22650;SDS011;11492;42.646;23.400;2023-05-07T05:33:37;23.20;;;16.48;;
22650;SDS011;11492;42.646;23.400;2023-05-07T05:36:02;28.75;;;14.38;;
22650;SDS011;11492;42.646;23.400;2023-05-07T05:38:28;21.67;;;14.88;;
22650;SDS011;11492;42.646;23.400;2023-05-07T05:40:54;21.95;;;13.40;;
22650;SDS011;11492;42.646;23.400;2023-05-07T05:43:19;22.13;;;14.75;;
22650;SDS011;11492;42.646;23.400;2023-05-07T05:45:45;20.50;;;14.32;;
22650;SDS011;11492;42.646;23.400;2023-05-07T05:48:10;28.25;;;15.02;;
22650;SDS011;11492;42.646;23.400;2023-05-07T05:50:36;23.60;;;14.32;;
22650;SDS011;11492;42.646;23.400;2023-05-07T05:53:01;21.88;;;12.52;;
22650;SDS011;11492;42.646;23.400;2023-05-07T05:55:27;21.02;;;12.48;;
22650;SDS011;11492;42.646;23.400;2023-05-07T05:57:53;24.52;;;12.57;;
22650;SDS011;11492;42.646;23.400;2023-05-07T06:00:18;21.95;;;12.27;;
22650;SDS011;11492;42.646;23.400;2023-05-07T06:02:47;17.92;;;12.02;;
22650;SDS011;11492;42.646;23.400;2023-05-07T06:05:13;17.80;;;10.40;;
22650;SDS011;11492;42.646;23.400;2023-05-07T06:07:38;20.75;;;12.25;;
22650;SDS011;11492;42.646;23.400;2023-05-07T06:10:04;40.80;;;13.20;;
22650;SDS011;11492;42.646;23.400;2023-05-07T06:12:30;108.22;;;15.63;;
22650;SDS011;11492;42.646;23.400;2023-05-07T06:14:55;36.35;;;12.35;;
22650;SDS011;11492;42.646;23.400;2023-05-07T06:17:21;25.83;;;13.00;;
22650;SDS011;11492;42.646;23.400;2023-05-07T06:19:46;63.75;;;15.00;;
22650;SDS011;11492;42.646;23.400;2023-05-07T06:22:11;22.83;;;12.30;;
22650;SDS011;11492;42.646;23.400;2023-05-07T06:24:37;22.17;;;11.60;;
22650;SDS011;11492;42.646;23.400;2023-05-07T06:27:02;20.30;;;11.85;;
22650;SDS011;11492;42.646;23.400;2023-05-07T06:29:28;23.85;;;11.63;;
22650;SDS011;11492;42.646;23.400;2023-05-07T06:31:56;18.02;;;11.13;;
22650;SDS011;11492;42.646;23.400;2023-05-07T06:34:21;18.48;;;11.00;;
22650;SDS011;11492;42.646;23.400;2023-05-07T06:36:47;18.08;;;11.57;;
22650;SDS011;11492;42.646;23.400;2023-05-07T06:39:12;17.77;;;10.63;;
22650;SDS011;11492;42.646;23.400;2023-05-07T06:41:38;23.88;;;11.45;;
22650;SDS011;11492;42.646;23.400;2023-05-07T06:44:04;18.10;;;10.40;;
22650;SDS011;11492;42.646;23.400;2023-05-07T06:46:29;19.02;;;10.95;;
22650;SDS011;11492;42.646;23.400;2023-05-07T06:48:55;18.63;;;10.60;;
22650;SDS011;11492;42.646;23.400;2023-05-07T06:51:21;17.30;;;9.68;;
22650;SDS011;11492;42.646;23.400;2023-05-07T06:53:47;15.80;;;9.93;;
22650;SDS011;11492;42.646;23.400;2023-05-07T06:56:12;17.83;;;9.85;;
22650;SDS011;11492;42.646;23.400;2023-05-07T06:58:38;18.95;;;9.73;;
22650;SDS011;11492;42.646;23.400;2023-05-07T07:01:05;16.80;;;10.13;;
22650;SDS011;11492;42.646;23.400;2023-05-07T07:03:30;15.43;;;9.25;;
22650;SDS011;11492;42.646;23.400;2023-05-07T07:05:55;20.33;;;10.27;;
22650;SDS011;11492;42.646;23.400;2023-05-07T07:08:21;16.42;;;9.63;;
22650;SDS011;11492;42.646;23.400;2023-05-07T07:10:47;18.75;;;9.40;;
22650;SDS011;11492;42.646;23.400;2023-05-07T07:13:13;19.55;;;9.90;;
22650;SDS011;11492;42.646;23.400;2023-05-07T07:15:38;17.83;;;9.45;;
22650;SDS011;11492;42.646;23.400;2023-05-07T07:18:05;20.70;;;8.85;;
22650;SDS011;11492;42.646;23.400;2023-05-07T07:20:30;14.90;;;9.18;;
22650;SDS011;11492;42.646;23.400;2023-05-07T07:22:56;16.40;;;9.43;;
22650;SDS011;11492;42.646;23.400;2023-05-07T07:25:21;15.73;;;9.20;;
22650;SDS011;11492;42.646;23.400;2023-05-07T07:27:46;16.13;;;9.18;;
22650;SDS011;11492;42.646;23.400;2023-05-07T07:30:12;13.48;;;9.43;;
22650;SDS011;11492;42.646;23.400;2023-05-07T07:32:37;21.13;;;9.02;;
22650;SDS011;11492;42.646;23.400;2023-05-07T07:35:03;18.17;;;9.57;;
22650;SDS011;11492;42.646;23.400;2023-05-07T07:37:29;14.88;;;9.18;;
22650;SDS011;11492;42.646;23.400;2023-05-07T07:39:55;18.77;;;8.52;;
22650;SDS011;11492;42.646;23.400;2023-05-07T07:42:20;19.08;;;9.13;;
22650;SDS011;11492;42.646;23.400;2023-05-07T07:44:46;12.30;;;8.20;;
22650;SDS011;11492;42.646;23.400;2023-05-07T07:47:11;14.02;;;8.10;;
22650;SDS011;11492;42.646;23.400;2023-05-07T07:49:37;14.48;;;8.07;;
22650;SDS011;11492;42.646;23.400;2023-05-07T07:52:02;17.73;;;7.78;;
22650;SDS011;11492;42.646;23.400;2023-05-07T07:54:28;17.02;;;7.55;;
22650;SDS011;11492;42.646;23.400;2023-05-07T07:56:54;17.77;;;8.38;;
22650;SDS011;11492;42.646;23.400;2023-05-07T07:59:19;15.40;;;7.70;;
22650;SDS011;11492;42.646;23.400;2023-05-07T08:01:45;15.90;;;7.88;;
22650;SDS011;11492;42.646;23.400;2023-05-07T08:04:10;11.02;;;7.22;;
22650;SDS011;11492;42.646;23.400;2023-05-07T08:06:36;23.27;;;8.88;;
22650;SDS011;11492;42.646;23.400;2023-05-07T08:09:02;15.75;;;7.00;;
22650;SDS011;11492;42.646;23.400;2023-05-07T08:11:28;23.45;;;7.60;;
22650;SDS011;11492;42.646;23.400;2023-05-07T08:13:53;13.52;;;6.90;;
22650;SDS011;11492;42.646;23.400;2023-05-07T08:16:19;14.68;;;6.70;;
22650;SDS011;11492;42.646;23.400;2023-05-07T08:18:45;11.75;;;6.30;;
22650;SDS011;11492;42.646;23.400;2023-05-07T08:21:10;13.73;;;6.85;;
22650;SDS011;11492;42.646;23.400;2023-05-07T08:23:36;16.40;;;6.90;;
22650;SDS011;11492;42.646;23.400;2023-05-07T08:26:01;16.00;;;6.60;;
22650;SDS011;11492;42.646;23.400;2023-05-07T08:28:27;13.73;;;6.28;;
22650;SDS011;11492;42.646;23.400;2023-05-07T08:30:52;10.27;;;6.10;;
22650;SDS011;11492;42.646;23.400;2023-05-07T08:33:18;11.43;;;6.10;;
22650;SDS011;11492;42.646;23.400;2023-05-07T08:35:43;9.57;;;5.15;;
22650;SDS011;11492;42.646;23.400;2023-05-07T08:38:09;11.25;;;5.22;;
22650;SDS011;11492;42.646;23.400;2023-05-07T08:40:37;9.80;;;5.00;;
22650;SDS011;11492;42.646;23.400;2023-05-07T08:43:06;9.32;;;5.30;;
22650;SDS011;11492;42.646;23.400;2023-05-07T08:45:32;13.40;;;5.50;;
22650;SDS011;11492;42.646;23.400;2023-05-07T08:47:59;13.35;;;4.57;;
22650;SDS011;11492;42.646;23.400;2023-05-07T08:50:28;17.08;;;5.18;;
22650;SDS011;11492;42.646;23.400;2023-05-07T08:52:55;8.40;;;5.03;;
22650;SDS011;11492;42.646;23.400;2023-05-07T08:55:21;8.90;;;4.72;;
22650;SDS011;11492;42.646;23.400;2023-05-07T08:57:48;12.63;;;4.68;;
22650;SDS011;11492;42.646;23.400;2023-05-07T09:00:13;10.88;;;4.60;;
22650;SDS011;11492;42.646;23.400;2023-05-07T09:02:39;8.55;;;4.22;;
22650;SDS011;11492;42.646;23.400;2023-05-07T09:05:05;9.38;;;3.83;;
22650;SDS011;11492;42.646;23.400;2023-05-07T09:07:31;10.20;;;3.35;;
22650;SDS011;11492;42.646;23.400;2023-05-07T09:09:57;7.20;;;3.08;;
22650;SDS011;11492;42.646;23.400;2023-05-07T09:12:23;7.82;;;2.75;;
22650;SDS011;11492;42.646;23.400;2023-05-07T09:14:49;5.53;;;2.60;;
22650;SDS011;11492;42.646;23.400;2023-05-07T09:17:15;5.38;;;2.70;;
22650;SDS011;11492;42.646;23.400;2023-05-07T09:19:42;6.82;;;2.97;;
22650;SDS011;11492;42.646;23.400;2023-05-07T09:22:09;14.13;;;3.35;;
22650;SDS011;11492;42.646;23.400;2023-05-07T09:24:34;11.35;;;3.25;;
22650;SDS011;11492;42.646;23.400;2023-05-07T09:27:02;7.78;;;3.67;;
22650;SDS011;11492;42.646;23.400;2023-05-07T09:29:28;6.55;;;3.30;;
22650;SDS011;11492;42.646;23.400;2023-05-07T09:31:55;8.77;;;2.92;;
22650;SDS011;11492;42.646;23.400;2023-05-07T09:34:21;7.38;;;3.13;;
22650;SDS011;11492;42.646;23.400;2023-05-07T09:36:47;4.88;;;2.97;;
22650;SDS011;11492;42.646;23.400;2023-05-07T09:39:13;6.90;;;3.45;;
22650;SDS011;11492;42.646;23.400;2023-05-07T09:41:45;6.57;;;4.10;;
22650;SDS011;11492;42.646;23.400;2023-05-07T09:44:11;13.00;;;4.05;;
22650;SDS011;11492;42.646;23.400;2023-05-07T09:46:38;6.68;;;3.70;;
22650;SDS011;11492;42.646;23.400;2023-05-07T09:49:04;6.22;;;3.28;;
22650;SDS011;11492;42.646;23.400;2023-05-07T09:51:38;6.03;;;2.85;;
22650;SDS011;11492;42.646;23.400;2023-05-07T09:54:06;8.75;;;3.47;;
22650;SDS011;11492;42.646;23.400;2023-05-07T09:56:32;5.15;;;3.30;;
22650;SDS011;11492;42.646;23.400;2023-05-07T09:58:59;6.70;;;3.20;;
22650;SDS011;11492;42.646;23.400;2023-05-07T10:01:25;10.93;;;2.90;;
22650;SDS011;11492;42.646;23.400;2023-05-07T10:03:52;6.47;;;2.88;;
22650;SDS011;11492;42.646;23.400;2023-05-07T10:06:21;9.50;;;2.75;;
22650;SDS011;11492;42.646;23.400;2023-05-07T10:08:49;7.95;;;2.80;;
22650;SDS011;11492;42.646;23.400;2023-05-07T10:11:16;4.93;;;2.47;;
22650;SDS011;11492;42.646;23.400;2023-05-07T10:13:42;12.95;;;3.22;;
22650;SDS011;11492;42.646;23.400;2023-05-07T10:16:08;3.25;;;2.40;;
22650;SDS011;11492;42.646;23.400;2023-05-07T10:18:34;4.07;;;2.50;;
22650;SDS011;11492;42.646;23.400;2023-05-07T10:21:08;5.10;;;2.63;;
22650;SDS011;11492;42.646;23.400;2023-05-07T10:23:38;7.03;;;2.33;;
22650;SDS011;11492;42.646;23.400;2023-05-07T10:26:06;8.05;;;3.03;;
22650;SDS011;11492;42.646;23.400;2023-05-07T10:28:34;6.57;;;2.65;;
22650;SDS011;11492;42.646;23.400;2023-05-07T10:31:15;5.78;;;2.78;;
22650;SDS011;11492;42.646;23.400;2023-05-07T10:33:46;8.43;;;3.10;;
22650;SDS011;11492;42.646;23.400;2023-05-07T10:36:16;7.28;;;2.60;;
22650;SDS011;11492;42.646;23.400;2023-05-07T10:38:42;11.82;;;2.55;;
22650;SDS011;11492;42.646;23.400;2023-05-07T10:41:08;5.97;;;2.30;;
22650;SDS011;11492;42.646;23.400;2023-05-07T10:43:41;6.22;;;2.63;;
22650;SDS011;11492;42.646;23.400;2023-05-07T10:51:28;4.63;;;2.72;;
22650;SDS011;11492;42.646;23.400;2023-05-07T10:56:41;7.68;;;2.47;;
22650;SDS011;11492;42.646;23.400;2023-05-07T11:01:49;9.95;;;3.20;;
22650;SDS011;11492;42.646;23.400;2023-05-07T11:04:16;6.10;;;3.13;;
22650;SDS011;11492;42.646;23.400;2023-05-07T11:12:16;6.53;;;3.10;;
22650;SDS011;11492;42.646;23.400;2023-05-07T11:17:09;5.85;;;3.00;;
22650;SDS011;11492;42.646;23.400;2023-05-07T11:19:48;7.80;;;3.15;;
22650;SDS011;11492;42.646;23.400;2023-05-07T11:24:55;7.10;;;3.33;;
22650;SDS011;11492;42.646;23.400;2023-05-07T11:27:24;6.72;;;3.38;;
22650;SDS011;11492;42.646;23.400;2023-05-07T11:29:50;9.55;;;3.40;;
22650;SDS011;11492;42.646;23.400;2023-05-07T11:32:15;5.35;;;3.10;;
22650;SDS011;11492;42.646;23.400;2023-05-07T11:34:50;9.82;;;3.10;;
22650;SDS011;11492;42.646;23.400;2023-05-07T11:37:17;8.43;;;2.67;;
22650;SDS011;11492;42.646;23.400;2023-05-07T11:39:43;8.55;;;2.97;;
22650;SDS011;11492;42.646;23.400;2023-05-07T11:45:08;9.15;;;3.03;;
22650;SDS011;11492;42.646;23.400;2023-05-07T11:47:34;5.15;;;2.90;;
22650;SDS011;11492;42.646;23.400;2023-05-07T11:50:04;4.53;;;3.22;;
22650;SDS011;11492;42.646;23.400;2023-05-07T11:52:32;5.97;;;3.08;;
22650;SDS011;11492;42.646;23.400;2023-05-07T11:54:59;10.52;;;2.90;;
22650;SDS011;11492;42.646;23.400;2023-05-07T11:57:25;7.30;;;2.88;;
22650;SDS011;11492;42.646;23.400;2023-05-07T11:59:57;11.07;;;3.22;;
22650;SDS011;11492;42.646;23.400;2023-05-07T12:02:23;7.00;;;2.92;;
22650;SDS011;11492;42.646;23.400;2023-05-07T12:04:50;8.38;;;3.08;;
22650;SDS011;11492;42.646;23.400;2023-05-07T12:07:16;4.60;;;2.75;;
22650;SDS011;11492;42.646;23.400;2023-05-07T12:09:43;8.27;;;2.72;;
22650;SDS011;11492;42.646;23.400;2023-05-07T12:12:12;5.63;;;2.90;;
22650;SDS011;11492;42.646;23.400;2023-05-07T12:14:43;8.63;;;3.20;;
22650;SDS011;11492;42.646;23.400;2023-05-07T12:17:10;6.60;;;2.90;;
22650;SDS011;11492;42.646;23.400;2023-05-07T12:19:37;6.60;;;3.03;;
22650;SDS011;11492;42.646;23.400;2023-05-07T12:22:04;7.53;;;3.10;;
22650;SDS011;11492;42.646;23.400;2023-05-07T12:27:12;4.85;;;3.00;;
22650;SDS011;11492;42.646;23.400;2023-05-07T12:29:47;7.05;;;3.00;;
22650;SDS011;11492;42.646;23.400;2023-05-07T12:32:14;5.38;;;3.67;;
22650;SDS011;11492;42.646;23.400;2023-05-07T12:34:41;4.85;;;3.38;;
22650;SDS011;11492;42.646;23.400;2023-05-07T12:37:07;6.03;;;3.50;;
22650;SDS011;11492;42.646;23.400;2023-05-07T12:39:32;6.05;;;2.80;;
22650;SDS011;11492;42.646;23.400;2023-05-07T12:41:58;5.90;;;3.13;;
22650;SDS011;11492;42.646;23.400;2023-05-07T12:44:25;8.80;;;3.38;;
22650;SDS011;11492;42.646;23.400;2023-05-07T12:46:55;8.13;;;3.00;;
22650;SDS011;11492;42.646;23.400;2023-05-07T12:49:20;7.18;;;3.40;;
22650;SDS011;11492;42.646;23.400;2023-05-07T12:51:49;12.65;;;3.67;;
22650;SDS011;11492;42.646;23.400;2023-05-07T12:57:02;12.38;;;3.50;;
22650;SDS011;11492;42.646;23.400;2023-05-07T13:02:03;8.30;;;2.85;;
22650;SDS011;11492;42.646;23.400;2023-05-07T13:04:29;8.98;;;2.80;;
22650;SDS011;11492;42.646;23.400;2023-05-07T13:06:55;8.18;;;2.80;;
22650;SDS011;11492;42.646;23.400;2023-05-07T13:09:20;9.23;;;3.08;;
22650;SDS011;11492;42.646;23.400;2023-05-07T13:11:46;5.10;;;2.70;;
22650;SDS011;11492;42.646;23.400;2023-05-07T13:14:11;9.05;;;3.03;;
22650;SDS011;11492;42.646;23.400;2023-05-07T13:16:37;3.33;;;2.47;;
22650;SDS011;11492;42.646;23.400;2023-05-07T13:19:02;5.07;;;2.70;;
22650;SDS011;11492;42.646;23.400;2023-05-07T13:21:28;10.13;;;2.70;;
22650;SDS011;11492;42.646;23.400;2023-05-07T13:23:53;5.65;;;2.78;;
22650;SDS011;11492;42.646;23.400;2023-05-07T13:26:19;4.60;;;2.70;;
22650;SDS011;11492;42.646;23.400;2023-05-07T13:28:45;7.85;;;2.80;;
22650;SDS011;11492;42.646;23.400;2023-05-07T13:31:11;8.57;;;3.15;;
22650;SDS011;11492;42.646;23.400;2023-05-07T13:33:36;6.93;;;2.80;;
22650;SDS011;11492;42.646;23.400;2023-05-07T13:36:02;8.55;;;2.90;;
22650;SDS011;11492;42.646;23.400;2023-05-07T13:38:29;8.73;;;2.13;;
22650;SDS011;11492;42.646;23.400;2023-05-07T13:40:55;9.10;;;2.85;;
22650;SDS011;11492;42.646;23.400;2023-05-07T13:43:20;5.70;;;2.88;;
22650;SDS011;11492;42.646;23.400;2023-05-07T13:45:47;9.05;;;2.72;;
22650;SDS011;11492;42.646;23.400;2023-05-07T13:48:12;7.32;;;2.85;;
22650;SDS011;11492;42.646;23.400;2023-05-07T13:50:38;5.75;;;2.45;;
22650;SDS011;11492;42.646;23.400;2023-05-07T13:53:03;6.95;;;2.85;;
22650;SDS011;11492;42.646;23.400;2023-05-07T13:55:29;6.20;;;2.70;;
22650;SDS011;11492;42.646;23.400;2023-05-07T13:57:55;5.28;;;2.53;;
22650;SDS011;11492;42.646;23.400;2023-05-07T14:00:22;4.75;;;2.75;;
22650;SDS011;11492;42.646;23.400;2023-05-07T14:02:48;5.03;;;2.60;;
22650;SDS011;11492;42.646;23.400;2023-05-07T14:05:13;6.60;;;2.53;;
22650;SDS011;11492;42.646;23.400;2023-05-07T14:07:38;9.35;;;3.22;;
22650;SDS011;11492;42.646;23.400;2023-05-07T14:10:04;6.72;;;2.70;;
22650;SDS011;11492;42.646;23.400;2023-05-07T14:12:31;8.13;;;3.75;;
22650;SDS011;11492;42.646;23.400;2023-05-07T14:14:57;12.73;;;2.70;;
22650;SDS011;11492;42.646;23.400;2023-05-07T14:17:23;6.93;;;2.63;;
22650;SDS011;11492;42.646;23.400;2023-05-07T14:19:50;12.57;;;3.83;;
22650;SDS011;11492;42.646;23.400;2023-05-07T14:22:15;5.18;;;2.42;;
22650;SDS011;11492;42.646;23.400;2023-05-07T14:24:41;3.08;;;2.30;;
22650;SDS011;11492;42.646;23.400;2023-05-07T14:27:06;5.25;;;2.50;;
22650;SDS011;11492;42.646;23.400;2023-05-07T14:29:32;6.03;;;2.42;;
22650;SDS011;11492;42.646;23.400;2023-05-07T14:31:57;7.30;;;3.00;;
22650;SDS011;11492;42.646;23.400;2023-05-07T14:34:23;6.60;;;3.00;;
22650;SDS011;11492;42.646;23.400;2023-05-07T14:36:48;5.35;;;2.90;;
22650;SDS011;11492;42.646;23.400;2023-05-07T14:39:14;10.05;;;5.00;;
22650;SDS011;11492;42.646;23.400;2023-05-07T14:41:39;10.48;;;3.78;;
22650;SDS011;11492;42.646;23.400;2023-05-07T14:44:05;7.82;;;3.00;;
22650;SDS011;11492;42.646;23.400;2023-05-07T14:46:30;11.13;;;3.10;;
22650;SDS011;11492;42.646;23.400;2023-05-07T14:48:58;4.95;;;2.60;;